sensor_id;sensor_type;location;lat;lon;timestamp;P1;durP1;ratioP1;P2;durP2;ratioP2
54561;SDS011;69047;53.358;-1.486;2023-12-28T00:02:21;12.65;;;2.05;;
54561;SDS011;69047;53.358;-1.486;2023-12-28T00:04:47;13.10;;;2.42;;
54561;SDS011;69047;53.358;-1.486;2023-12-28T00:07:12;23.85;;;2.63;;
54561;SDS011;69047;53.358;-1.486;2023-12-28T00:09:38;26.65;;;2.95;;
54561;SDS011;69047;53.358;-1.486;2023-12-28T00:12:04;15.95;;;2.92;;
54561;SDS011;69047;53.358;-1.486;2023-12-28T00:14:35;20.23;;;5.60;;
54561;SDS011;69047;53.358;-1.486;2023-12-28T00:17:00;33.70;;;4.60;;
54561;SDS011;69047;53.358;-1.486;2023-12-28T00:19:26;44.83;;;4.68;;
54561;SDS011;69047;53.358;-1.486;2023-12-28T00:21:51;20.48;;;3.47;;
54561;SDS011;69047;53.358;-1.486;2023-12-28T00:24:20;30.23;;;3.95;;
54561;SDS011;69047;53.358;-1.486;2023-12-28T00:26:46;28.25;;;4.53;;
54561;SDS011;69047;53.358;-1.486;2023-12-28T00:29:11;34.42;;;5.25;;
54561;SDS011;69047;53.358;-1.486;2023-12-28T00:31:37;26.33;;;4.13;;
54561;SDS011;69047;53.358;-1.486;2023-12-28T00:34:02;24.10;;;3.88;;
54561;SDS011;69047;53.358;-1.486;2023-12-28T00:36:27;29.60;;;5.13;;
54561;SDS011;69047;53.358;-1.486;2023-12-28T00:38:53;40.17;;;6.15;;
54561;SDS011;69047;53.358;-1.486;2023-12-28T00:41:18;32.45;;;5.30;;
54561;SDS011;69047;53.358;-1.486;2023-12-28T00:43:44;31.48;;;4.50;;
54561;SDS011;69047;53.358;-1.486;2023-12-28T00:46:09;37.40;;;4.90;;
54561;SDS011;69047;53.358;-1.486;2023-12-28T00:48:35;34.33;;;5.15;;
54561;SDS011;69047;53.358;-1.486;2023-12-28T00:51:00;39.63;;;5.30;;
54561;SDS011;69047;53.358;-1.486;2023-12-28T00:53:26;27.40;;;4.45;;
54561;SDS011;69047;53.358;-1.486;2023-12-28T00:55:51;27.23;;;4.18;;
54561;SDS011;69047;53.358;-1.486;2023-12-28T00:58:17;34.70;;;5.25;;
54561;SDS011;69047;53.358;-1.486;2023-12-28T01:00:42;34.70;;;5.18;;
54561;SDS011;69047;53.358;-1.486;2023-12-28T01:03:08;32.65;;;5.90;;
54561;SDS011;69047;53.358;-1.486;2023-12-28T01:05:33;31.98;;;4.88;;
54561;SDS011;69047;53.358;-1.486;2023-12-28T01:07:59;31.85;;;4.97;;
54561;SDS011;69047;53.358;-1.486;2023-12-28T01:10:24;32.38;;;4.90;;
54561;SDS011;69047;53.358;-1.486;2023-12-28T01:12:50;29.92;;;4.88;;
54561;SDS011;69047;53.358;-1.486;2023-12-28T01:15:15;34.58;;;4.68;;
54561;SDS011;69047;53.358;-1.486;2023-12-28T01:17:42;29.13;;;5.18;;
54561;SDS011;69047;53.358;-1.486;2023-12-28T01:20:08;40.55;;;5.45;;
54561;SDS011;69047;53.358;-1.486;2023-12-28T01:22:34;37.58;;;6.05;;
54561;SDS011;69047;53.358;-1.486;2023-12-28T01:24:59;36.05;;;5.00;;
54561;SDS011;69047;53.358;-1.486;2023-12-28T01:27:25;41.50;;;6.25;;
54561;SDS011;69047;53.358;-1.486;2023-12-28T01:29:50;35.55;;;6.20;;
54561;SDS011;69047;53.358;-1.486;2023-12-28T01:32:16;39.47;;;6.90;;
54561;SDS011;69047;53.358;-1.486;2023-12-28T01:34:41;46.20;;;5.72;;
54561;SDS011;69047;53.358;-1.486;2023-12-28T01:37:07;38.22;;;6.05;;
54561;SDS011;69047;53.358;-1.486;2023-12-28T01:39:33;40.35;;;4.78;;
54561;SDS011;69047;53.358;-1.486;2023-12-28T01:41:58;35.47;;;5.00;;
54561;SDS011;69047;53.358;-1.486;2023-12-28T01:44:24;36.58;;;6.35;;
54561;SDS011;69047;53.358;-1.486;2023-12-28T01:46:49;35.33;;;5.68;;
54561;SDS011;69047;53.358;-1.486;2023-12-28T01:49:15;37.30;;;5.93;;
54561;SDS011;69047;53.358;-1.486;2023-12-28T01:51:41;32.70;;;6.10;;
54561;SDS011;69047;53.358;-1.486;2023-12-28T01:54:07;42.67;;;5.57;;
54561;SDS011;69047;53.358;-1.486;2023-12-28T01:56:33;33.33;;;5.45;;
54561;SDS011;69047;53.358;-1.486;2023-12-28T01:58:59;39.50;;;5.68;;
54561;SDS011;69047;53.358;-1.486;2023-12-28T02:01:25;37.72;;;7.15;;
54561;SDS011;69047;53.358;-1.486;2023-12-28T02:03:51;44.97;;;6.28;;
54561;SDS011;69047;53.358;-1.486;2023-12-28T02:06:17;53.72;;;5.88;;
54561;SDS011;69047;53.358;-1.486;2023-12-28T02:08:44;48.03;;;6.72;;
54561;SDS011;69047;53.358;-1.486;2023-12-28T02:11:09;58.60;;;7.55;;
54561;SDS011;69047;53.358;-1.486;2023-12-28T02:13:35;55.03;;;7.25;;
54561;SDS011;69047;53.358;-1.486;2023-12-28T02:16:02;53.45;;;7.63;;
54561;SDS011;69047;53.358;-1.486;2023-12-28T02:18:34;44.25;;;8.32;;
54561;SDS011;69047;53.358;-1.486;2023-12-28T02:21:04;63.15;;;6.93;;
54561;SDS011;69047;53.358;-1.486;2023-12-28T02:23:34;48.97;;;6.15;;
54561;SDS011;69047;53.358;-1.486;2023-12-28T02:26:00;49.97;;;8.15;;
54561;SDS011;69047;53.358;-1.486;2023-12-28T02:28:26;43.47;;;6.30;;
54561;SDS011;69047;53.358;-1.486;2023-12-28T02:30:51;45.88;;;5.25;;
54561;SDS011;69047;53.358;-1.486;2023-12-28T02:33:29;54.10;;;6.80;;
54561;SDS011;69047;53.358;-1.486;2023-12-28T02:36:01;58.10;;;7.93;;
54561;SDS011;69047;53.358;-1.486;2023-12-28T02:38:30;54.67;;;8.50;;
54561;SDS011;69047;53.358;-1.486;2023-12-28T02:40:59;48.92;;;5.55;;
54561;SDS011;69047;53.358;-1.486;2023-12-28T02:43:25;39.42;;;5.75;;
54561;SDS011;69047;53.358;-1.486;2023-12-28T02:45:51;51.03;;;6.50;;
54561;SDS011;69047;53.358;-1.486;2023-12-28T02:48:16;40.60;;;5.85;;
54561;SDS011;69047;53.358;-1.486;2023-12-28T02:50:41;41.95;;;6.50;;
54561;SDS011;69047;53.358;-1.486;2023-12-28T02:53:07;36.63;;;6.07;;
54561;SDS011;69047;53.358;-1.486;2023-12-28T02:55:32;47.28;;;6.50;;
54561;SDS011;69047;53.358;-1.486;2023-12-28T02:57:58;33.63;;;6.53;;
54561;SDS011;69047;53.358;-1.486;2023-12-28T03:00:27;30.80;;;5.78;;
54561;SDS011;69047;53.358;-1.486;2023-12-28T03:02:53;38.47;;;6.35;;
54561;SDS011;69047;53.358;-1.486;2023-12-28T03:05:18;33.83;;;6.93;;
54561;SDS011;69047;53.358;-1.486;2023-12-28T03:07:44;48.03;;;5.45;;
54561;SDS011;69047;53.358;-1.486;2023-12-28T03:10:10;54.70;;;6.65;;
54561;SDS011;69047;53.358;-1.486;2023-12-28T03:12:36;41.42;;;5.93;;
54561;SDS011;69047;53.358;-1.486;2023-12-28T03:15:02;55.22;;;5.80;;
54561;SDS011;69047;53.358;-1.486;2023-12-28T03:17:28;49.20;;;8.52;;
54561;SDS011;69047;53.358;-1.486;2023-12-28T03:19:55;38.97;;;5.68;;
54561;SDS011;69047;53.358;-1.486;2023-12-28T03:22:21;40.88;;;6.60;;
54561;SDS011;69047;53.358;-1.486;2023-12-28T03:24:47;55.60;;;6.50;;
54561;SDS011;69047;53.358;-1.486;2023-12-28T03:27:12;36.65;;;5.28;;
54561;SDS011;69047;53.358;-1.486;2023-12-28T03:29:37;45.63;;;6.72;;
54561;SDS011;69047;53.358;-1.486;2023-12-28T03:32:03;32.42;;;5.85;;
54561;SDS011;69047;53.358;-1.486;2023-12-28T03:34:30;46.85;;;6.85;;
54561;SDS011;69047;53.358;-1.486;2023-12-28T03:36:59;39.55;;;6.45;;
54561;SDS011;69047;53.358;-1.486;2023-12-28T03:39:25;46.63;;;7.20;;
54561;SDS011;69047;53.358;-1.486;2023-12-28T03:41:50;27.00;;;5.25;;
54561;SDS011;69047;53.358;-1.486;2023-12-28T03:44:17;38.40;;;6.10;;
54561;SDS011;69047;53.358;-1.486;2023-12-28T03:46:43;45.83;;;6.00;;
54561;SDS011;69047;53.358;-1.486;2023-12-28T03:49:08;44.97;;;5.20;;
54561;SDS011;69047;53.358;-1.486;2023-12-28T03:51:34;41.42;;;5.10;;
54561;SDS011;69047;53.358;-1.486;2023-12-28T03:53:59;42.00;;;5.72;;
54561;SDS011;69047;53.358;-1.486;2023-12-28T03:56:26;39.63;;;6.10;;
54561;SDS011;69047;53.358;-1.486;2023-12-28T03:58:52;31.60;;;4.93;;
54561;SDS011;69047;53.358;-1.486;2023-12-28T04:01:18;50.58;;;7.20;;
54561;SDS011;69047;53.358;-1.486;2023-12-28T04:03:45;33.92;;;5.20;;
54561;SDS011;69047;53.358;-1.486;2023-12-28T04:06:11;30.65;;;5.35;;
54561;SDS011;69047;53.358;-1.486;2023-12-28T04:08:41;37.42;;;6.18;;
54561;SDS011;69047;53.358;-1.486;2023-12-28T04:11:07;37.58;;;4.90;;
54561;SDS011;69047;53.358;-1.486;2023-12-28T04:13:33;33.92;;;4.53;;
54561;SDS011;69047;53.358;-1.486;2023-12-28T04:15:58;35.63;;;5.35;;
54561;SDS011;69047;53.358;-1.486;2023-12-28T04:18:23;27.08;;;3.97;;
54561;SDS011;69047;53.358;-1.486;2023-12-28T04:20:49;23.48;;;4.28;;
54561;SDS011;69047;53.358;-1.486;2023-12-28T04:23:15;51.85;;;5.18;;
54561;SDS011;69047;53.358;-1.486;2023-12-28T04:25:40;33.28;;;5.22;;
54561;SDS011;69047;53.358;-1.486;2023-12-28T04:28:06;31.55;;;4.18;;
54561;SDS011;69047;53.358;-1.486;2023-12-28T04:30:32;34.47;;;4.38;;
54561;SDS011;69047;53.358;-1.486;2023-12-28T04:32:58;27.00;;;4.85;;
54561;SDS011;69047;53.358;-1.486;2023-12-28T04:35:23;38.35;;;4.30;;
54561;SDS011;69047;53.358;-1.486;2023-12-28T04:37:48;26.20;;;4.30;;
54561;SDS011;69047;53.358;-1.486;2023-12-28T04:40:14;32.05;;;3.97;;
54561;SDS011;69047;53.358;-1.486;2023-12-28T04:42:40;35.55;;;5.70;;
54561;SDS011;69047;53.358;-1.486;2023-12-28T04:45:07;32.95;;;4.63;;
54561;SDS011;69047;53.358;-1.486;2023-12-28T04:47:33;35.20;;;4.95;;
54561;SDS011;69047;53.358;-1.486;2023-12-28T04:49:58;21.27;;;3.85;;
54561;SDS011;69047;53.358;-1.486;2023-12-28T04:52:24;40.75;;;6.50;;
54561;SDS011;69047;53.358;-1.486;2023-12-28T04:54:49;34.88;;;6.03;;
54561;SDS011;69047;53.358;-1.486;2023-12-28T04:57:15;40.45;;;6.57;;
54561;SDS011;69047;53.358;-1.486;2023-12-28T04:59:41;40.35;;;6.25;;
54561;SDS011;69047;53.358;-1.486;2023-12-28T05:02:07;41.22;;;6.95;;
54561;SDS011;69047;53.358;-1.486;2023-12-28T05:04:32;42.53;;;5.68;;
54561;SDS011;69047;53.358;-1.486;2023-12-28T05:06:58;31.65;;;5.32;;
54561;SDS011;69047;53.358;-1.486;2023-12-28T05:09:23;29.55;;;4.72;;
54561;SDS011;69047;53.358;-1.486;2023-12-28T05:11:49;41.15;;;5.97;;
54561;SDS011;69047;53.358;-1.486;2023-12-28T05:14:21;30.35;;;3.80;;
54561;SDS011;69047;53.358;-1.486;2023-12-28T05:16:50;31.48;;;5.43;;
54561;SDS011;69047;53.358;-1.486;2023-12-28T05:19:15;34.33;;;5.72;;
54561;SDS011;69047;53.358;-1.486;2023-12-28T05:21:41;42.13;;;5.32;;
54561;SDS011;69047;53.358;-1.486;2023-12-28T05:24:06;35.53;;;4.72;;
54561;SDS011;69047;53.358;-1.486;2023-12-28T05:26:32;44.80;;;5.25;;
54561;SDS011;69047;53.358;-1.486;2023-12-28T05:28:57;28.40;;;5.13;;
54561;SDS011;69047;53.358;-1.486;2023-12-28T05:31:23;35.20;;;5.78;;
54561;SDS011;69047;53.358;-1.486;2023-12-28T05:33:48;38.58;;;5.80;;
54561;SDS011;69047;53.358;-1.486;2023-12-28T05:36:14;31.92;;;4.82;;
54561;SDS011;69047;53.358;-1.486;2023-12-28T05:38:39;54.08;;;5.15;;
54561;SDS011;69047;53.358;-1.486;2023-12-28T05:41:04;33.33;;;4.55;;
54561;SDS011;69047;53.358;-1.486;2023-12-28T05:43:30;41.63;;;4.85;;
54561;SDS011;69047;53.358;-1.486;2023-12-28T05:45:55;43.13;;;7.22;;
54561;SDS011;69047;53.358;-1.486;2023-12-28T05:48:21;57.13;;;10.50;;
54561;SDS011;69047;53.358;-1.486;2023-12-28T05:50:46;51.58;;;7.60;;
54561;SDS011;69047;53.358;-1.486;2023-12-28T05:53:12;48.95;;;7.65;;
54561;SDS011;69047;53.358;-1.486;2023-12-28T05:55:42;50.25;;;7.13;;
54561;SDS011;69047;53.358;-1.486;2023-12-28T05:58:08;49.78;;;6.28;;
54561;SDS011;69047;53.358;-1.486;2023-12-28T06:00:34;49.92;;;7.22;;
54561;SDS011;69047;53.358;-1.486;2023-12-28T06:03:01;50.88;;;7.03;;
54561;SDS011;69047;53.358;-1.486;2023-12-28T06:05:27;47.25;;;6.68;;
54561;SDS011;69047;53.358;-1.486;2023-12-28T06:07:52;36.80;;;6.53;;
54561;SDS011;69047;53.358;-1.486;2023-12-28T06:10:18;49.90;;;5.95;;
54561;SDS011;69047;53.358;-1.486;2023-12-28T06:12:43;39.00;;;5.57;;
54561;SDS011;69047;53.358;-1.486;2023-12-28T06:15:09;49.70;;;7.28;;
54561;SDS011;69047;53.358;-1.486;2023-12-28T06:17:34;41.78;;;5.15;;
54561;SDS011;69047;53.358;-1.486;2023-12-28T06:20:00;32.00;;;5.90;;
54561;SDS011;69047;53.358;-1.486;2023-12-28T06:22:25;41.65;;;6.53;;
54561;SDS011;69047;53.358;-1.486;2023-12-28T06:24:53;36.83;;;5.43;;
54561;SDS011;69047;53.358;-1.486;2023-12-28T06:27:19;37.20;;;6.45;;
54561;SDS011;69047;53.358;-1.486;2023-12-28T06:29:45;41.58;;;5.07;;
54561;SDS011;69047;53.358;-1.486;2023-12-28T06:32:10;30.00;;;4.80;;
54561;SDS011;69047;53.358;-1.486;2023-12-28T06:34:36;38.63;;;5.75;;
54561;SDS011;69047;53.358;-1.486;2023-12-28T06:37:01;52.47;;;6.63;;
54561;SDS011;69047;53.358;-1.486;2023-12-28T06:39:26;36.97;;;5.93;;
54561;SDS011;69047;53.358;-1.486;2023-12-28T06:41:52;60.47;;;9.02;;
54561;SDS011;69047;53.358;-1.486;2023-12-28T06:44:18;48.47;;;7.20;;
54561;SDS011;69047;53.358;-1.486;2023-12-28T06:46:44;43.67;;;7.10;;
54561;SDS011;69047;53.358;-1.486;2023-12-28T06:49:10;47.60;;;6.32;;
54561;SDS011;69047;53.358;-1.486;2023-12-28T06:51:35;43.83;;;6.55;;
54561;SDS011;69047;53.358;-1.486;2023-12-28T06:54:01;45.28;;;7.30;;
54561;SDS011;69047;53.358;-1.486;2023-12-28T06:56:26;29.63;;;6.40;;
54561;SDS011;69047;53.358;-1.486;2023-12-28T06:58:51;56.85;;;7.63;;
54561;SDS011;69047;53.358;-1.486;2023-12-28T07:01:17;55.15;;;7.63;;
54561;SDS011;69047;53.358;-1.486;2023-12-28T07:03:43;40.17;;;7.50;;
54561;SDS011;69047;53.358;-1.486;2023-12-28T07:06:08;32.92;;;6.57;;
54561;SDS011;69047;53.358;-1.486;2023-12-28T07:08:34;42.85;;;6.00;;
54561;SDS011;69047;53.358;-1.486;2023-12-28T07:10:59;47.20;;;7.10;;
54561;SDS011;69047;53.358;-1.486;2023-12-28T07:13:25;43.80;;;7.03;;
54561;SDS011;69047;53.358;-1.486;2023-12-28T07:15:51;41.67;;;6.30;;
54561;SDS011;69047;53.358;-1.486;2023-12-28T07:18:16;39.05;;;6.30;;
54561;SDS011;69047;53.358;-1.486;2023-12-28T07:20:42;51.78;;;6.22;;
54561;SDS011;69047;53.358;-1.486;2023-12-28T07:23:07;49.28;;;6.65;;
54561;SDS011;69047;53.358;-1.486;2023-12-28T07:25:34;43.28;;;6.05;;
54561;SDS011;69047;53.358;-1.486;2023-12-28T07:27:59;36.92;;;6.00;;
54561;SDS011;69047;53.358;-1.486;2023-12-28T07:30:25;41.60;;;6.38;;
54561;SDS011;69047;53.358;-1.486;2023-12-28T07:32:50;49.08;;;5.65;;
54561;SDS011;69047;53.358;-1.486;2023-12-28T07:35:15;47.80;;;8.55;;
54561;SDS011;69047;53.358;-1.486;2023-12-28T07:37:41;39.67;;;5.28;;
54561;SDS011;69047;53.358;-1.486;2023-12-28T07:40:07;34.17;;;5.70;;
54561;SDS011;69047;53.358;-1.486;2023-12-28T07:42:32;54.05;;;6.55;;
54561;SDS011;69047;53.358;-1.486;2023-12-28T07:44:58;44.42;;;5.40;;
54561;SDS011;69047;53.358;-1.486;2023-12-28T07:47:23;39.70;;;6.72;;
54561;SDS011;69047;53.358;-1.486;2023-12-28T07:49:49;45.00;;;5.72;;
54561;SDS011;69047;53.358;-1.486;2023-12-28T07:52:14;55.65;;;6.55;;
54561;SDS011;69047;53.358;-1.486;2023-12-28T07:54:39;35.03;;;5.40;;
54561;SDS011;69047;53.358;-1.486;2023-12-28T07:57:05;27.73;;;3.90;;
54561;SDS011;69047;53.358;-1.486;2023-12-28T07:59:30;20.30;;;3.78;;
54561;SDS011;69047;53.358;-1.486;2023-12-28T08:01:56;24.95;;;4.03;;
54561;SDS011;69047;53.358;-1.486;2023-12-28T08:04:22;14.75;;;2.53;;
54561;SDS011;69047;53.358;-1.486;2023-12-28T08:06:47;20.45;;;1.98;;
54561;SDS011;69047;53.358;-1.486;2023-12-28T08:09:13;19.60;;;2.22;;
54561;SDS011;69047;53.358;-1.486;2023-12-28T08:11:38;18.50;;;2.55;;
54561;SDS011;69047;53.358;-1.486;2023-12-28T08:14:04;11.70;;;2.05;;
54561;SDS011;69047;53.358;-1.486;2023-12-28T08:16:32;18.30;;;2.45;;
54561;SDS011;69047;53.358;-1.486;2023-12-28T08:19:00;21.83;;;2.67;;
54561;SDS011;69047;53.358;-1.486;2023-12-28T08:21:25;16.98;;;3.08;;
54561;SDS011;69047;53.358;-1.486;2023-12-28T08:23:51;17.30;;;3.08;;
54561;SDS011;69047;53.358;-1.486;2023-12-28T08:26:16;15.07;;;2.85;;
54561;SDS011;69047;53.358;-1.486;2023-12-28T08:28:42;15.70;;;2.65;;
54561;SDS011;69047;53.358;-1.486;2023-12-28T08:31:08;12.43;;;2.45;;
54561;SDS011;69047;53.358;-1.486;2023-12-28T08:33:34;12.50;;;1.77;;
54561;SDS011;69047;53.358;-1.486;2023-12-28T08:36:04;9.30;;;1.35;;
54561;SDS011;69047;53.358;-1.486;2023-12-28T08:38:33;14.32;;;2.65;;
54561;SDS011;69047;53.358;-1.486;2023-12-28T08:40:58;8.50;;;2.10;;
54561;SDS011;69047;53.358;-1.486;2023-12-28T08:43:24;9.30;;;1.52;;
54561;SDS011;69047;53.358;-1.486;2023-12-28T08:45:49;9.40;;;1.30;;
54561;SDS011;69047;53.358;-1.486;2023-12-28T08:48:14;9.82;;;1.70;;
54561;SDS011;69047;53.358;-1.486;2023-12-28T08:50:40;8.60;;;1.30;;
54561;SDS011;69047;53.358;-1.486;2023-12-28T08:53:05;7.55;;;1.92;;
54561;SDS011;69047;53.358;-1.486;2023-12-28T08:55:31;13.63;;;2.08;;
54561;SDS011;69047;53.358;-1.486;2023-12-28T08:57:56;19.80;;;3.03;;
54561;SDS011;69047;53.358;-1.486;2023-12-28T09:00:22;9.98;;;1.65;;
54561;SDS011;69047;53.358;-1.486;2023-12-28T09:02:47;20.83;;;3.03;;
54561;SDS011;69047;53.358;-1.486;2023-12-28T09:05:13;9.00;;;1.58;;
54561;SDS011;69047;53.358;-1.486;2023-12-28T09:07:38;10.18;;;2.25;;
54561;SDS011;69047;53.358;-1.486;2023-12-28T09:10:11;17.38;;;1.83;;
54561;SDS011;69047;53.358;-1.486;2023-12-28T09:12:37;19.33;;;2.88;;
54561;SDS011;69047;53.358;-1.486;2023-12-28T09:15:04;18.70;;;2.50;;
54561;SDS011;69047;53.358;-1.486;2023-12-28T09:17:30;14.60;;;1.95;;
54561;SDS011;69047;53.358;-1.486;2023-12-28T09:19:56;18.45;;;2.50;;
54561;SDS011;69047;53.358;-1.486;2023-12-28T09:22:23;17.45;;;2.22;;
54561;SDS011;69047;53.358;-1.486;2023-12-28T09:24:49;18.65;;;2.47;;
54561;SDS011;69047;53.358;-1.486;2023-12-28T09:27:14;10.63;;;1.63;;
54561;SDS011;69047;53.358;-1.486;2023-12-28T09:29:40;20.73;;;2.35;;
54561;SDS011;69047;53.358;-1.486;2023-12-28T09:32:05;30.45;;;2.28;;
54561;SDS011;69047;53.358;-1.486;2023-12-28T09:34:32;15.98;;;2.05;;
54561;SDS011;69047;53.358;-1.486;2023-12-28T09:36:58;11.35;;;2.33;;
54561;SDS011;69047;53.358;-1.486;2023-12-28T09:39:24;18.00;;;2.38;;
54561;SDS011;69047;53.358;-1.486;2023-12-28T09:42:03;15.13;;;2.13;;
54561;SDS011;69047;53.358;-1.486;2023-12-28T09:44:31;21.17;;;3.75;;
54561;SDS011;69047;53.358;-1.486;2023-12-28T09:46:57;13.18;;;2.17;;
54561;SDS011;69047;53.358;-1.486;2023-12-28T09:49:23;15.50;;;2.38;;
54561;SDS011;69047;53.358;-1.486;2023-12-28T09:51:48;18.23;;;2.38;;
54561;SDS011;69047;53.358;-1.486;2023-12-28T09:54:21;16.35;;;2.80;;
54561;SDS011;69047;53.358;-1.486;2023-12-28T09:56:55;27.77;;;3.28;;
54561;SDS011;69047;53.358;-1.486;2023-12-28T09:59:21;19.15;;;3.67;;
54561;SDS011;69047;53.358;-1.486;2023-12-28T10:01:48;20.58;;;3.60;;
54561;SDS011;69047;53.358;-1.486;2023-12-28T10:04:14;12.63;;;2.45;;
54561;SDS011;69047;53.358;-1.486;2023-12-28T10:06:41;18.65;;;2.38;;
54561;SDS011;69047;53.358;-1.486;2023-12-28T10:09:07;27.27;;;4.25;;
54561;SDS011;69047;53.358;-1.486;2023-12-28T10:11:33;25.50;;;3.25;;
54561;SDS011;69047;53.358;-1.486;2023-12-28T10:13:58;29.27;;;3.38;;
54561;SDS011;69047;53.358;-1.486;2023-12-28T10:16:24;26.80;;;4.00;;
54561;SDS011;69047;53.358;-1.486;2023-12-28T10:18:49;20.63;;;4.25;;
54561;SDS011;69047;53.358;-1.486;2023-12-28T10:21:15;26.30;;;4.97;;
54561;SDS011;69047;53.358;-1.486;2023-12-28T10:23:40;20.60;;;3.42;;
54561;SDS011;69047;53.358;-1.486;2023-12-28T10:26:06;24.90;;;5.18;;
54561;SDS011;69047;53.358;-1.486;2023-12-28T10:28:31;28.08;;;4.57;;
54561;SDS011;69047;53.358;-1.486;2023-12-28T10:30:58;27.08;;;3.72;;
54561;SDS011;69047;53.358;-1.486;2023-12-28T10:33:23;26.98;;;4.97;;
54561;SDS011;69047;53.358;-1.486;2023-12-28T10:35:52;20.33;;;2.85;;
54561;SDS011;69047;53.358;-1.486;2023-12-28T10:38:22;16.80;;;2.72;;
54561;SDS011;69047;53.358;-1.486;2023-12-28T10:40:50;22.17;;;3.50;;
54561;SDS011;69047;53.358;-1.486;2023-12-28T10:43:17;16.08;;;2.88;;
54561;SDS011;69047;53.358;-1.486;2023-12-28T10:45:47;31.50;;;3.97;;
54561;SDS011;69047;53.358;-1.486;2023-12-28T10:48:15;18.17;;;2.72;;
54561;SDS011;69047;53.358;-1.486;2023-12-28T10:50:48;13.35;;;2.85;;
54561;SDS011;69047;53.358;-1.486;2023-12-28T10:56:14;23.08;;;4.35;;
54561;SDS011;69047;53.358;-1.486;2023-12-28T10:59:14;19.75;;;2.33;;
54561;SDS011;69047;53.358;-1.486;2023-12-28T11:01:49;21.00;;;3.05;;
54561;SDS011;69047;53.358;-1.486;2023-12-28T11:06:57;18.13;;;3.63;;
54561;SDS011;69047;53.358;-1.486;2023-12-28T11:09:24;22.23;;;5.57;;
54561;SDS011;69047;53.358;-1.486;2023-12-28T11:11:55;25.67;;;4.47;;
54561;SDS011;69047;53.358;-1.486;2023-12-28T11:14:33;31.10;;;3.53;;
54561;SDS011;69047;53.358;-1.486;2023-12-28T11:17:00;17.75;;;4.65;;
54561;SDS011;69047;53.358;-1.486;2023-12-28T11:19:27;31.52;;;2.90;;
54561;SDS011;69047;53.358;-1.486;2023-12-28T11:21:54;21.98;;;3.00;;
54561;SDS011;69047;53.358;-1.486;2023-12-28T11:24:21;24.60;;;3.13;;
54561;SDS011;69047;53.358;-1.486;2023-12-28T11:26:54;12.50;;;2.35;;
54561;SDS011;69047;53.358;-1.486;2023-12-28T11:29:20;17.57;;;2.87;;
54561;SDS011;69047;53.358;-1.486;2023-12-28T11:31:57;18.42;;;2.47;;
54561;SDS011;69047;53.358;-1.486;2023-12-28T11:34:32;22.35;;;2.47;;
54561;SDS011;69047;53.358;-1.486;2023-12-28T11:37:08;17.00;;;2.88;;
54561;SDS011;69047;53.358;-1.486;2023-12-28T11:39:38;17.90;;;2.47;;
54561;SDS011;69047;53.358;-1.486;2023-12-28T11:42:08;15.80;;;2.45;;
54561;SDS011;69047;53.358;-1.486;2023-12-28T11:44:38;16.23;;;2.63;;
54561;SDS011;69047;53.358;-1.486;2023-12-28T11:49:42;18.05;;;3.47;;
54561;SDS011;69047;53.358;-1.486;2023-12-28T11:52:21;18.65;;;2.95;;
54561;SDS011;69047;53.358;-1.486;2023-12-28T11:54:51;21.80;;;2.97;;
54561;SDS011;69047;53.358;-1.486;2023-12-28T11:57:16;20.48;;;3.15;;
54561;SDS011;69047;53.358;-1.486;2023-12-28T11:59:42;19.90;;;2.65;;
54561;SDS011;69047;53.358;-1.486;2023-12-28T12:02:08;14.85;;;3.10;;
54561;SDS011;69047;53.358;-1.486;2023-12-28T12:04:34;21.75;;;4.03;;
54561;SDS011;69047;53.358;-1.486;2023-12-28T12:07:03;19.38;;;2.72;;
54561;SDS011;69047;53.358;-1.486;2023-12-28T12:09:29;11.52;;;2.35;;
54561;SDS011;69047;53.358;-1.486;2023-12-28T12:11:59;20.92;;;2.97;;
54561;SDS011;69047;53.358;-1.486;2023-12-28T12:14:29;13.23;;;3.65;;
54561;SDS011;69047;53.358;-1.486;2023-12-28T12:16:57;15.82;;;2.58;;
54561;SDS011;69047;53.358;-1.486;2023-12-28T12:19:23;23.67;;;3.00;;
54561;SDS011;69047;53.358;-1.486;2023-12-28T12:21:57;18.48;;;2.53;;
54561;SDS011;69047;53.358;-1.486;2023-12-28T12:24:23;20.08;;;3.20;;
54561;SDS011;69047;53.358;-1.486;2023-12-28T12:26:49;13.02;;;2.45;;
54561;SDS011;69047;53.358;-1.486;2023-12-28T12:29:16;12.60;;;3.05;;
54561;SDS011;69047;53.358;-1.486;2023-12-28T12:31:42;15.45;;;2.08;;
54561;SDS011;69047;53.358;-1.486;2023-12-28T12:34:10;11.73;;;1.77;;
54561;SDS011;69047;53.358;-1.486;2023-12-28T12:36:36;18.70;;;1.88;;
54561;SDS011;69047;53.358;-1.486;2023-12-28T12:39:02;18.27;;;2.60;;
54561;SDS011;69047;53.358;-1.486;2023-12-28T12:41:31;17.50;;;2.42;;
54561;SDS011;69047;53.358;-1.486;2023-12-28T12:43:59;14.98;;;2.97;;
54561;SDS011;69047;53.358;-1.486;2023-12-28T12:46:26;6.07;;;1.75;;
54561;SDS011;69047;53.358;-1.486;2023-12-28T12:48:55;10.40;;;2.53;;
54561;SDS011;69047;53.358;-1.486;2023-12-28T12:51:22;6.68;;;2.00;;
54561;SDS011;69047;53.358;-1.486;2023-12-28T12:53:47;4.57;;;1.13;;
54561;SDS011;69047;53.358;-1.486;2023-12-28T12:56:13;10.63;;;1.65;;
54561;SDS011;69047;53.358;-1.486;2023-12-28T12:58:38;7.13;;;0.98;;
54561;SDS011;69047;53.358;-1.486;2023-12-28T13:01:04;6.43;;;0.90;;
54561;SDS011;69047;53.358;-1.486;2023-12-28T13:03:29;9.05;;;1.13;;
54561;SDS011;69047;53.358;-1.486;2023-12-28T13:05:55;2.40;;;0.52;;
54561;SDS011;69047;53.358;-1.486;2023-12-28T13:08:21;4.18;;;0.63;;
54561;SDS011;69047;53.358;-1.486;2023-12-28T13:10:47;7.93;;;1.65;;
54561;SDS011;69047;53.358;-1.486;2023-12-28T13:13:12;9.45;;;0.82;;
54561;SDS011;69047;53.358;-1.486;2023-12-28T13:15:38;3.30;;;0.73;;
54561;SDS011;69047;53.358;-1.486;2023-12-28T13:18:04;3.97;;;1.05;;
54561;SDS011;69047;53.358;-1.486;2023-12-28T13:20:30;4.38;;;0.80;;
54561;SDS011;69047;53.358;-1.486;2023-12-28T13:22:55;4.07;;;1.13;;
54561;SDS011;69047;53.358;-1.486;2023-12-28T13:25:22;3.45;;;1.23;;
54561;SDS011;69047;53.358;-1.486;2023-12-28T13:27:47;3.78;;;1.33;;
54561;SDS011;69047;53.358;-1.486;2023-12-28T13:30:13;6.68;;;0.82;;
54561;SDS011;69047;53.358;-1.486;2023-12-28T13:32:38;4.40;;;0.80;;
54561;SDS011;69047;53.358;-1.486;2023-12-28T13:35:04;3.72;;;0.68;;
54561;SDS011;69047;53.358;-1.486;2023-12-28T13:37:29;3.97;;;1.00;;
54561;SDS011;69047;53.358;-1.486;2023-12-28T13:39:55;8.85;;;1.13;;
54561;SDS011;69047;53.358;-1.486;2023-12-28T13:42:20;8.05;;;0.93;;
54561;SDS011;69047;53.358;-1.486;2023-12-28T13:44:46;5.18;;;1.30;;
54561;SDS011;69047;53.358;-1.486;2023-12-28T13:47:11;10.15;;;1.80;;
54561;SDS011;69047;53.358;-1.486;2023-12-28T13:49:36;11.30;;;1.98;;
54561;SDS011;69047;53.358;-1.486;2023-12-28T13:52:02;12.65;;;1.77;;
54561;SDS011;69047;53.358;-1.486;2023-12-28T13:54:29;12.77;;;2.00;;
54561;SDS011;69047;53.358;-1.486;2023-12-28T13:56:57;8.50;;;1.58;;
54561;SDS011;69047;53.358;-1.486;2023-12-28T13:59:24;10.32;;;1.30;;
54561;SDS011;69047;53.358;-1.486;2023-12-28T14:01:49;13.18;;;2.10;;
54561;SDS011;69047;53.358;-1.486;2023-12-28T14:04:15;16.88;;;2.63;;
54561;SDS011;69047;53.358;-1.486;2023-12-28T14:06:40;15.85;;;3.55;;
54561;SDS011;69047;53.358;-1.486;2023-12-28T14:09:06;21.58;;;2.42;;
54561;SDS011;69047;53.358;-1.486;2023-12-28T14:11:31;18.55;;;2.78;;
54561;SDS011;69047;53.358;-1.486;2023-12-28T14:13:56;36.45;;;3.63;;
54561;SDS011;69047;53.358;-1.486;2023-12-28T14:16:22;21.58;;;3.90;;
54561;SDS011;69047;53.358;-1.486;2023-12-28T14:18:48;20.33;;;3.35;;
54561;SDS011;69047;53.358;-1.486;2023-12-28T14:21:14;19.75;;;2.58;;
54561;SDS011;69047;53.358;-1.486;2023-12-28T14:23:40;18.15;;;3.22;;
54561;SDS011;69047;53.358;-1.486;2023-12-28T14:26:11;16.70;;;3.03;;
54561;SDS011;69047;53.358;-1.486;2023-12-28T14:28:39;23.50;;;3.10;;